createdAt,value
2022-09-27T00:00:23.309Z,-16702.78
2022-09-27T00:01:25.543Z,-17352.56
2022-09-27T00:02:27.887Z,-17028.47
2022-09-27T00:03:31.015Z,-16383.03
2022-09-27T00:04:33.178Z,-16378.66
2022-09-27T00:05:35.380Z,-16702.50
2022-09-27T00:06:40.927Z,-17351.63
2022-09-27T00:07:44.652Z,-16705.25
2022-09-27T00:08:46.816Z,-16377.16
2022-09-27T00:09:48.943Z,-16702.50
2022-09-27T00:10:59.482Z,-17684.72
2022-09-27T00:12:01.741Z,-16060.16
2022-09-27T00:13:03.961Z,-15413.59
2022-09-27T00:14:07.545Z,-15088.44
2022-09-27T00:15:10.508Z,-15405.63
2022-09-27T00:16:12.744Z,-16375.97
2022-09-27T00:17:14.915Z,-16378.97
2022-09-27T00:18:17.065Z,-16374.91
2022-09-27T00:19:23.671Z,-18009.28
2022-09-27T00:20:26.200Z,-16382.28
2022-09-27T00:21:30.563Z,-17019.13
2022-09-27T00:22:32.982Z,-17987.34
2022-09-27T00:23:35.644Z,-20563.84
2022-09-27T00:24:38.078Z,-20572.00
2022-09-27T00:25:40.287Z,-20577.00
2022-09-27T00:26:43.209Z,-20581.97
2022-09-27T00:27:45.539Z,-19288.22
2022-09-27T00:28:47.669Z,-18970.16
2022-09-27T00:29:49.891Z,-17030.63
2022-09-27T00:30:52.618Z,-16700.81
2022-09-27T00:31:55.045Z,-16695.44
2022-09-27T00:32:57.198Z,-16698.66
2022-09-27T00:34:01.752Z,-17349.56
2022-09-27T00:35:04.200Z,-17339.28
2022-09-27T00:36:07.066Z,-17344.97
2022-09-27T00:37:09.921Z,-17017.72
2022-09-27T00:38:13.003Z,-17343.38
2022-09-27T00:39:16.309Z,-17669.91
2022-09-27T00:40:24.076Z,-16703.41
2022-09-27T00:41:32.912Z,-15732.41
2022-09-27T00:42:36.317Z,-15076.97
2022-09-27T00:44:24.514Z,-16703.25
2022-09-27T00:45:26.638Z,-15398.50
2022-09-27T00:46:44.243Z,-17358.28
2022-09-27T00:48:01.022Z,-15732.53
2022-09-27T00:49:06.401Z,-16373.25
2022-09-27T00:50:15.599Z,-17678.13
2022-09-27T00:51:17.891Z,-15407.03
2022-09-27T00:52:27.390Z,-14761.22
2022-09-27T00:53:35.273Z,-14425.88
2022-09-27T00:54:42.917Z,-16042.09
2022-09-27T00:55:56.086Z,-19271.50
2022-09-27T00:56:59.098Z,-19264.53
2022-09-27T00:58:04.674Z,-20574.00
2022-09-27T00:59:14.324Z,-19928.03
2022-09-27T01:00:17.532Z,-17661.06
2022-09-27T01:01:19.837Z,-17008.22
2022-09-27T01:02:22.161Z,-17009.75
2022-09-27T01:03:46.436Z,-17346.41
2022-09-27T01:04:49.823Z,-16045.94
2022-09-27T01:05:52.637Z,-15716.72
2022-09-27T01:06:54.857Z,-16364.22
2022-09-27T01:07:59.839Z,-16040.91
2022-09-27T01:09:02.280Z,-15075.41
2022-09-27T01:10:06.194Z,-14751.34
2022-09-27T01:11:08.448Z,-14427.09
2022-09-27T01:12:16.406Z,-14763.16
2022-09-27T01:13:35.028Z,-13138.59
2022-09-27T01:14:41.503Z,-14743.78
2022-09-27T01:15:58.559Z,-17660.91
2022-09-27T01:17:26.008Z,-16049.94
2022-09-27T01:18:43.299Z,-14104.31
2022-09-27T01:19:53.570Z,-13447.84
2022-09-27T01:21:34.506Z,-15399.34
2022-09-27T01:22:51.949Z,-14738.00
2022-09-27T01:24:20.886Z,-16368.88
2022-09-27T01:25:41.741Z,-16047.72
2022-09-27T01:27:30.857Z,-14748.16
2022-09-27T01:29:05.659Z,-15716.28
2022-09-27T01:30:18.889Z,-16367.69
2022-09-27T01:31:33.974Z,-15074.44
2022-09-27T01:32:45.594Z,-15720.19
2022-09-27T01:34:15.967Z,-15717.72
2022-09-27T01:36:09.225Z,-17334.19
2022-09-27T01:37:45.513Z,-16687.47
2022-09-27T01:38:56.416Z,-16045.50
2022-09-27T01:40:21.104Z,-15400.63
2022-09-27T01:41:54.962Z,-13443.25
2022-09-27T01:43:18.337Z,-15066.31
2022-09-27T01:44:27.490Z,-16037.81
2022-09-27T01:45:46.079Z,-17007.91
2022-09-27T01:47:03.460Z,-16362.13
2022-09-27T01:48:21.782Z,-16363.31
2022-09-27T01:49:39.378Z,-17006.34
2022-09-27T01:51:06.778Z,-17339.44
2022-09-27T01:52:11.622Z,-15068.13
2022-09-27T01:53:20.827Z,-16366.47
2022-09-27T01:55:03.128Z,-15068.28
2022-09-27T01:56:37.831Z,-16688.41
2022-09-27T01:57:55.647Z,-17336.41
2022-09-27T01:59:11.115Z,-16370.53
2022-09-27T02:00:19.081Z,-15387.94
2022-09-27T02:01:24.346Z,-16687.94
2022-09-27T02:02:31.115Z,-16041.06
2022-09-27T02:03:54.921Z,-15718.16
2022-09-27T02:05:28.660Z,-15391.34
2022-09-27T02:06:38.816Z,-15716.84
2022-09-27T02:07:58.150Z,-15720.47
2022-09-27T02:09:15.085Z,-15397.63
2022-09-27T02:10:45.483Z,-14747.34
2022-09-27T02:11:57.941Z,-14745.16
2022-09-27T02:13:24.171Z,-16369.63
2022-09-27T02:14:39.298Z,-16043.13
2022-09-27T02:15:54.230Z,-16043.00
2022-09-27T02:17:21.087Z,-15723.69
2022-09-27T02:18:43.216Z,-15079.19
2022-09-27T02:19:46.129Z,-13451.91
2022-09-27T02:21:01.159Z,-14749.13
2022-09-27T02:22:09.412Z,-14097.03
2022-09-27T02:23:35.317Z,-15723.41
2022-09-27T02:24:58.797Z,-15081.72
2022-09-27T02:26:42.943Z,-14110.63
2022-09-27T02:27:50.171Z,-11840.50
2022-09-27T02:29:05.834Z,-12165.47
2022-09-27T02:30:17.347Z,-11187.75
2022-09-27T02:31:22.610Z,-11505.41
2022-09-27T02:32:25.086Z,-12807.56
2022-09-27T02:33:39.355Z,-12815.56
2022-09-27T02:34:43.694Z,-11191.66
2022-09-27T02:35:46.328Z,-10217.56
2022-09-27T02:36:48.725Z,-10214.47
2022-09-27T02:37:51.639Z,-11187.00
2022-09-27T02:38:54.098Z,-11835.03
2022-09-27T02:39:58.345Z,-11837.19
2022-09-27T02:41:00.775Z,-11834.47
2022-09-27T02:42:04.803Z,-13132.75
2022-09-27T02:43:07.230Z,-13452.91
2022-09-27T02:44:13.618Z,-14106.41
2022-09-27T02:45:18.362Z,-14432.22
2022-09-27T02:46:26.236Z,-13454.94
2022-09-27T02:47:43.851Z,-13466.38
2022-09-27T02:48:58.213Z,-11846.53
2022-09-27T02:50:33.386Z,-11522.31
2022-09-27T02:52:16.760Z,-11842.78
2022-09-27T02:53:40.958Z,-14107.59
2022-09-27T02:55:24.621Z,-15083.41
2022-09-27T02:57:09.246Z,-13465.09
2022-09-27T02:58:58.030Z,-13786.63
2022-09-27T03:00:21.799Z,-13790.25
2022-09-27T03:02:12.626Z,-13458.75
2022-09-27T03:03:49.486Z,-15405.06
2022-09-27T03:05:18.370Z,-14433.03
2022-09-27T03:06:23.359Z,-13787.13
2022-09-27T03:07:26.647Z,-13453.91
2022-09-27T03:08:28.916Z,-14099.81
2022-09-27T03:09:44.829Z,-14434.63
2022-09-27T03:10:46.998Z,-13772.22
2022-09-27T03:11:49.739Z,-14744.19
2022-09-27T03:12:52.020Z,-15068.00
2022-09-27T03:14:08.393Z,-14748.72
2022-09-27T03:15:16.918Z,-13779.50
2022-09-27T03:16:37.289Z,-12803.16
2022-09-27T03:18:11.321Z,-13452.28
2022-09-27T03:19:49.214Z,-12156.63
2022-09-27T03:21:09.744Z,-13127.28
2022-09-27T03:22:11.913Z,-14413.34
2022-09-27T03:23:14.322Z,-16033.53
2022-09-27T03:24:16.990Z,-16033.81
2022-09-27T03:25:21.382Z,-16029.09
2022-09-27T03:26:23.547Z,-16679.81
2022-09-27T03:27:25.719Z,-16026.13
2022-09-27T03:28:29.718Z,-16678.28
2022-09-27T03:29:32.570Z,-16683.66
2022-09-27T03:30:42.103Z,-15069.41
2022-09-27T03:31:45.425Z,-13765.25
2022-09-27T03:33:05.658Z,-14409.44
2022-09-27T03:34:28.002Z,-15382.81
2022-09-27T03:35:30.750Z,-15700.16
2022-09-27T03:36:33.021Z,-17313.28
2022-09-27T03:37:35.191Z,-17959.53
2022-09-27T03:38:37.791Z,-19258.44
2022-09-27T03:39:42.326Z,-17967.06
2022-09-27T03:40:44.780Z,-16667.25
2022-09-27T03:41:47.263Z,-17637.06
2022-09-27T03:42:50.980Z,-17312.03
2022-09-27T03:43:53.202Z,-18277.44
2022-09-27T03:44:55.550Z,-18608.00
2022-09-27T03:45:57.725Z,-17640.63
2022-09-27T03:47:00.123Z,-17318.38
2022-09-27T03:48:02.331Z,-16343.75
2022-09-27T03:49:05.015Z,-17318.84
2022-09-27T03:50:08.492Z,-16669.72
2022-09-27T03:51:12.354Z,-17636.09
2022-09-27T03:52:15.189Z,-16988.28
2022-09-27T03:53:17.917Z,-18276.78
2022-09-27T03:54:20.081Z,-18929.00
2022-09-27T03:55:22.239Z,-18600.91
2022-09-27T03:56:24.440Z,-17314.09
2022-09-27T03:57:26.715Z,-16341.94
2022-09-27T03:58:29.267Z,-17628.22
2022-09-27T03:59:31.504Z,-18275.28
2022-09-27T04:00:59.902Z,-17958.22
2022-09-27T04:02:02.725Z,-18279.28
2022-09-27T04:03:26.206Z,-17312.97
2022-09-27T04:04:46.700Z,-17306.97
2022-09-27T04:05:49.201Z,-17311.09
2022-09-27T04:06:56.035Z,-16989.22
2022-09-27T04:07:58.646Z,-16344.03
2022-09-27T04:09:01.437Z,-15697.97
2022-09-27T04:10:19.034Z,-16014.31
2022-09-27T04:11:23.736Z,-16658.22
2022-09-27T04:12:25.963Z,-17952.66
2022-09-27T04:13:28.140Z,-18280.59
2022-09-27T04:14:31.860Z,-17316.00
2022-09-27T04:15:52.730Z,-16670.03
2022-09-27T04:17:15.178Z,-15056.78
2022-09-27T04:18:43.808Z,-15688.25
2022-09-27T04:20:20.970Z,-16982.34
2022-09-27T04:21:23.280Z,-18273.13
2022-09-27T04:22:28.322Z,-19888.06
2022-09-27T04:23:30.932Z,-18272.63
2022-09-27T04:24:33.892Z,-18914.94
2022-09-27T04:25:53.814Z,-20213.56
2022-09-27T04:27:12.844Z,-18284.59
2022-09-27T04:28:17.035Z,-17305.69
2022-09-27T04:29:19.336Z,-17627.72
2022-09-27T04:30:26.519Z,-20204.44
2022-09-27T04:31:47.141Z,-19884.28
2022-09-27T04:32:55.306Z,-20209.19
2022-09-27T04:34:46.252Z,-20215.00
2022-09-27T04:36:09.211Z,-19233.03
2022-09-27T04:37:14.756Z,-20521.94
2022-09-27T04:38:24.031Z,-20529.19
2022-09-27T04:39:27.301Z,-20531.34
2022-09-27T04:40:30.177Z,-20539.28
2022-09-27T04:41:33.086Z,-19883.75
2022-09-27T04:42:35.263Z,-20524.91
2022-09-27T04:43:37.419Z,-20529.50
2022-09-27T04:44:39.597Z,-20532.69
2022-09-27T04:45:43.958Z,-20539.16
2022-09-27T04:46:46.226Z,-20529.91
2022-09-27T04:47:51.181Z,-20539.72
2022-09-27T04:48:53.357Z,-19886.63
2022-09-27T04:49:55.526Z,-20528.22
2022-09-27T04:51:04.752Z,-20539.72
2022-09-27T04:52:07.242Z,-20535.59
2022-09-27T04:53:14.673Z,-20540.59
2022-09-27T04:54:16.862Z,-19889.31
2022-09-27T04:55:30.705Z,-19892.53
2022-09-27T04:56:33.212Z,-19247.31
2022-09-27T04:57:37.065Z,-17631.59
2022-09-27T04:58:39.781Z,-18600.91
2022-09-27T04:59:42.731Z,-17636.25
2022-09-27T05:00:47.334Z,-16021.25
2022-09-27T05:02:08.125Z,-16987.66
2022-09-27T05:03:33.577Z,-16982.03
2022-09-27T05:04:44.869Z,-17633.22
2022-09-27T05:05:47.072Z,-17311.09
2022-09-27T05:06:52.488Z,-16339.69
2022-09-27T05:08:03.981Z,-16332.91
2022-09-27T05:09:23.350Z,-17629.66
2022-09-27T05:10:28.227Z,-17629.34
2022-09-27T05:11:30.438Z,-17956.91
2022-09-27T05:12:52.784Z,-16981.88
2022-09-27T05:13:55.084Z,-16975.50
2022-09-27T05:14:59.494Z,-19880.16
2022-09-27T05:16:36.599Z,-18922.84
2022-09-27T05:17:58.744Z,-16986.25
2022-09-27T05:19:27.472Z,-17949.88
2022-09-27T05:20:53.335Z,-17627.41
2022-09-27T05:22:04.183Z,-17951.03
2022-09-27T05:23:06.423Z,-18915.28
2022-09-27T05:24:08.573Z,-18266.13
2022-09-27T05:25:10.854Z,-19890.75
2022-09-27T05:26:13.256Z,-18273.63
2022-09-27T05:27:20.465Z,-19883.03
2022-09-27T05:28:24.255Z,-20538.19
2022-09-27T05:29:27.092Z,-19568.63
2022-09-27T05:30:43.841Z,-19240.53
2022-09-27T05:31:52.403Z,-18921.13
2022-09-27T05:32:55.313Z,-17626.28
2022-09-27T05:34:16.122Z,-18919.06
2022-09-27T05:35:33.910Z,-18272.28
2022-09-27T05:36:37.257Z,-17947.41
2022-09-27T05:37:40.653Z,-18601.94
2022-09-27T05:38:43.484Z,-16341.19
2022-09-27T05:39:46.186Z,-16017.69
2022-09-27T05:40:50.856Z,-16022.13
2022-09-27T05:41:54.744Z,-15687.66
2022-09-27T05:42:57.179Z,-16337.44
2022-09-27T05:43:59.715Z,-16662.38
2022-09-27T05:45:02.198Z,-16332.59
2022-09-27T05:46:05.508Z,-17301.75
2022-09-27T05:47:08.286Z,-17303.16
2022-09-27T05:48:12.520Z,-17955.28
2022-09-27T05:49:20.594Z,-16330.19
2022-09-27T05:50:24.047Z,-17309.50
2022-09-27T05:51:26.358Z,-16985.78
2022-09-27T05:52:29.644Z,-16986.72
2022-09-27T05:53:32.409Z,-15688.09
2022-09-27T05:54:35.518Z,-16338.94
2022-09-27T05:55:37.978Z,-16985.47
2022-09-27T05:56:41.009Z,-15696.38
2022-09-27T05:58:16.340Z,-14409.31
2022-09-27T05:59:21.920Z,-13435.66
2022-09-27T06:00:46.332Z,-12792.94
2022-09-27T06:02:12.052Z,-13110.38
2022-09-27T06:03:17.478Z,-13756.56
2022-09-27T06:04:48.868Z,-14082.88
2022-09-27T06:06:06.500Z,-13114.25
2022-09-27T06:07:14.399Z,-12135.56
2022-09-27T06:08:16.559Z,-12138.94
2022-09-27T06:09:22.807Z,-11807.06
2022-09-27T06:10:25.263Z,-14396.63
2022-09-27T06:11:27.548Z,-15690.56
2022-09-27T06:12:31.058Z,-15365.53
2022-09-27T06:13:36.205Z,-15684.75
2022-09-27T06:14:38.413Z,-16655.63
2022-09-27T06:15:47.224Z,-17636.09
2022-09-27T06:16:49.425Z,-15371.66
2022-09-27T06:17:52.121Z,-14723.72
2022-09-27T06:18:58.057Z,-15050.63
2022-09-27T06:20:00.432Z,-13112.88
2022-09-27T06:21:04.761Z,-13109.41
2022-09-27T06:22:06.960Z,-13752.94
2022-09-27T06:23:21.110Z,-13423.97
2022-09-27T06:24:24.563Z,-16325.38
2022-09-27T06:25:26.927Z,-16979.25
2022-09-27T06:26:48.851Z,-15369.09
2022-09-27T06:28:02.763Z,-14079.31
2022-09-27T06:29:06.045Z,-13111.38
2022-09-27T06:30:09.502Z,-11812.75
2022-09-27T06:31:23.227Z,-12452.50
2022-09-27T06:32:37.497Z,-15364.97
2022-09-27T06:34:09.019Z,-13106.16
2022-09-27T06:35:11.233Z,-13746.06
2022-09-27T06:36:13.449Z,-15367.97
2022-09-27T06:37:16.460Z,-14720.00
2022-09-27T06:38:18.686Z,-14720.69
2022-09-27T06:39:33.265Z,-14717.94
2022-09-27T06:40:55.213Z,-15375.38
2022-09-27T06:42:05.992Z,-13761.22
2022-09-27T06:43:27.569Z,-12465.94
2022-09-27T06:44:41.694Z,-12790.53
2022-09-27T06:46:07.425Z,-12474.88
2022-09-27T06:47:42.088Z,-11168.44
2022-09-27T06:49:20.016Z,-12463.81
2022-09-27T06:50:24.485Z,-13763.69
2022-09-27T06:51:26.792Z,-13121.31
2022-09-27T06:52:29.083Z,-11173.75
2022-09-27T06:53:31.812Z,-12467.03
2022-09-27T06:54:33.985Z,-13435.53
2022-09-27T06:55:36.582Z,-14086.31
2022-09-27T06:56:38.773Z,-13759.16
2022-09-27T06:57:59.500Z,-13769.38
2022-09-27T06:59:20.165Z,-12472.13
2022-09-27T07:00:26.617Z,-11498.75
2022-09-27T07:01:41.351Z,-12144.66
2022-09-27T07:02:54.028Z,-12479.50
2022-09-27T07:04:16.172Z,-9888.97
2022-09-27T07:05:56.013Z,-10538.62
2022-09-27T07:07:34.303Z,-9886.13
2022-09-27T07:08:38.635Z,-10206.91
2022-09-27T07:09:40.932Z,-11185.38
2022-09-27T07:10:43.314Z,-10214.16
2022-09-27T07:11:45.974Z,-9564.69
2022-09-27T07:12:49.242Z,-9891.44
2022-09-27T07:13:52.537Z,-8591.44
2022-09-27T07:14:55.592Z,-9241.78
2022-09-27T07:15:58.360Z,-9563.94
2022-09-27T07:17:00.745Z,-9241.97
2022-09-27T07:18:08.954Z,-8597.03
2022-09-27T07:19:13.500Z,-7944.91
2022-09-27T07:20:17.346Z,-7300.28
2022-09-27T07:21:21.499Z,-6649.03
2022-09-27T07:22:24.065Z,-6973.38
2022-09-27T07:23:31.462Z,-6001.56
2022-09-27T07:24:34.180Z,-5021.47
2022-09-27T07:25:36.817Z,-8591.69
2022-09-27T07:26:39.029Z,-8916.94
2022-09-27T07:27:43.651Z,-8268.69
2022-09-27T07:28:46.095Z,-8264.78
2022-09-27T07:29:51.330Z,-9881.81
2022-09-27T07:30:56.786Z,-12166.75
2022-09-27T07:31:59.038Z,-8919.47
2022-09-27T07:33:05.287Z,-8600.69
2022-09-27T07:34:07.553Z,-6326.53
2022-09-27T07:35:10.992Z,-5678.41
2022-09-27T07:36:14.227Z,-4050.94
2022-09-27T07:37:18.644Z,-4699.34
2022-09-27T07:38:23.017Z,-5999.53
2022-09-27T07:39:26.592Z,-5026.19
2022-09-27T07:40:28.774Z,-5353.72
2022-09-27T07:41:31.954Z,-4377.97
2022-09-27T07:42:34.370Z,-4051.59
2022-09-27T07:43:36.669Z,-5350.47
2022-09-27T07:44:39.444Z,-5676.75
2022-09-27T07:45:58.191Z,-4694.88
2022-09-27T07:47:10.998Z,-6964.47
2022-09-27T07:48:32.190Z,-8589.84
2022-09-27T07:49:39.269Z,-9240.94
2022-09-27T07:51:10.926Z,-8919.84
2022-09-27T07:52:25.946Z,-6318.66
2022-09-27T07:53:46.536Z,-8916.50
2022-09-27T07:55:24.457Z,-6321.41
2022-09-27T07:56:45.500Z,-7619.44
2022-09-27T07:57:49.479Z,-7287.44
2022-09-27T07:58:51.961Z,-11824.56
2022-09-27T07:59:54.213Z,-11178.44
2022-09-27T08:00:59.537Z,-11823.56
2022-09-27T08:02:01.837Z,-13115.84
2022-09-27T08:03:17.685Z,-12476.91
2022-09-27T08:04:22.397Z,-10527.69
2022-09-27T08:05:24.643Z,-11817.53
2022-09-27T08:06:26.858Z,-12466.19
2022-09-27T08:07:32.891Z,-11820.38
2022-09-27T08:08:36.249Z,-12151.62
2022-09-27T08:09:40.224Z,-11182.13
2022-09-27T08:10:44.392Z,-10526.34
2022-09-27T08:11:48.384Z,-11825.16
2022-09-27T08:12:50.550Z,-11499.19
2022-09-27T08:13:52.698Z,-10531.72
2022-09-27T08:15:01.289Z,-9554.09
2022-09-27T08:16:03.885Z,-11819.34
2022-09-27T08:17:19.439Z,-11496.66
2022-09-27T08:18:59.881Z,-10853.34
2022-09-27T08:20:27.429Z,-10525.22
2022-09-27T08:21:48.015Z,-9882.13
2022-09-27T08:22:53.827Z,-10847.94
2022-09-27T08:24:01.270Z,-10856.94
2022-09-27T08:25:09.046Z,-9562.69
2022-09-27T08:26:13.820Z,-8911.72
2022-09-27T08:27:36.249Z,-7940.88
2022-09-27T08:28:50.670Z,-7287.22
2022-09-27T08:29:56.140Z,-7931.66
2022-09-27T08:30:59.477Z,-11495.53
2022-09-27T08:32:02.106Z,-10853.03
2022-09-27T08:33:04.366Z,-10199.47
2022-09-27T08:34:06.526Z,-12142.78
2022-09-27T08:35:09.297Z,-12153.94
2022-09-27T08:36:12.928Z,-11512.66
2022-09-27T08:37:16.044Z,-8585.75
2022-09-27T08:38:18.267Z,-10205.59
2022-09-27T08:39:20.637Z,-10531.09
2022-09-27T08:40:44.275Z,-11510.31
2022-09-27T08:41:49.290Z,-11189.06
2022-09-27T08:43:16.606Z,-10538.41
2022-09-27T08:44:34.462Z,-8911.19
2022-09-27T08:45:56.111Z,-11186.56
2022-09-27T08:47:17.434Z,-9570.91
2022-09-27T08:48:21.664Z,-7291.53
2022-09-27T08:49:55.623Z,-7946.94
2022-09-27T08:50:58.682Z,-7620.25
2022-09-27T08:52:01.354Z,-6645.75
2022-09-27T08:53:06.244Z,-5988.56
2022-09-27T08:54:17.706Z,-11834.25
2022-09-27T08:55:20.749Z,-8262.56
2022-09-27T08:56:24.125Z,-9557.16
2022-09-27T08:57:26.817Z,-10853.78
2022-09-27T08:58:48.566Z,-11834.59
2022-09-27T09:00:07.844Z,-10533.06
2022-09-27T09:01:14.849Z,-9561.44
2022-09-27T09:02:26.154Z,-8588.28
2022-09-27T09:03:33.614Z,-8590.56
2022-09-27T09:04:40.202Z,-8917.94
2022-09-27T09:05:42.617Z,-6640.59
2022-09-27T09:06:58.685Z,-7943.16
2022-09-27T09:08:36.487Z,-8593.19
2022-09-27T09:09:59.687Z,-7622.88
2022-09-27T09:11:24.404Z,-5027.59
2022-09-27T09:12:47.303Z,-3075.66
2022-09-27T09:14:27.336Z,-2102.34
2022-09-27T09:15:32.428Z,-3072.06
2022-09-27T09:17:11.499Z,-5673.56
2022-09-27T09:18:31.815Z,-3721.22
2022-09-27T09:19:51.914Z,-7615.00
2022-09-27T09:21:24.256Z,-10206.81
2022-09-27T09:22:45.156Z,-9565.44
2022-09-27T09:24:24.746Z,-7620.50
2022-09-27T09:25:31.169Z,-5017.19
2022-09-27T09:27:12.349Z,-7291.38
2022-09-27T09:28:51.748Z,-6975.09
2022-09-27T09:30:25.290Z,-5350.28
2022-09-27T09:32:07.408Z,-5027.47
2022-09-27T09:33:16.683Z,-5674.31
2022-09-27T09:34:26.136Z,-5348.72
2022-09-27T09:35:39.059Z,-7621.03
2022-09-27T09:37:05.679Z,-9565.75
2022-09-27T09:38:23.376Z,-9242.34
2022-09-27T09:39:51.379Z,-8593.88
2022-09-27T09:41:03.830Z,-8594.59
2022-09-27T09:42:33.040Z,-8271.22
2022-09-27T09:43:42.455Z,-7619.28
2022-09-27T09:45:19.859Z,-8272.75
2022-09-27T09:46:31.610Z,-7948.75
2022-09-27T09:47:47.986Z,-7947.13
2022-09-27T09:49:05.043Z,-9244.19
2022-09-27T09:50:22.572Z,-9571.66
2022-09-27T09:51:47.630Z,-8924.59
2022-09-27T09:52:59.425Z,-8270.53
2022-09-27T09:54:34.025Z,-8268.59
2022-09-27T09:55:36.924Z,-9555.91
2022-09-27T09:56:51.692Z,-11510.53
2022-09-27T09:58:19.801Z,-12162.09
2022-09-27T09:59:30.357Z,-8269.78
2022-09-27T10:00:33.054Z,-8914.78
2022-09-27T10:01:43.861Z,-8268.41
2022-09-27T10:02:48.620Z,-8270.72
2022-09-27T10:03:57.999Z,-8273.59
2022-09-27T10:05:07.487Z,-7946.13
2022-09-27T10:06:13.243Z,-7624.38
2022-09-27T10:07:20.422Z,-7949.75
2022-09-27T10:08:24.483Z,-5350.25
2022-09-27T10:10:05.014Z,-5356.16
2022-09-27T10:11:37.090Z,-3083.56
2022-09-27T10:12:45.054Z,-1131.00
2022-09-27T10:13:47.715Z,-2427.63
2022-09-27T10:14:52.389Z,-5353.22
2022-09-27T10:16:13.151Z,-4380.72
2022-09-27T10:17:20.448Z,-4380.84
2022-09-27T10:18:23.901Z,-4380.25
2022-09-27T10:19:31.520Z,-6333.84
2022-09-27T10:20:43.835Z,-3733.00
2022-09-27T10:21:51.004Z,-4383.19
2022-09-27T10:22:56.917Z,-3729.47
2022-09-27T10:24:22.207Z,-3729.81
2022-09-27T10:25:49.482Z,-4708.81
2022-09-27T10:27:08.738Z,-3406.88
2022-09-27T10:28:33.838Z,-3409.63
2022-09-27T10:29:39.008Z,-2108.25
2022-09-27T10:31:00.075Z,-2105.19
2022-09-27T10:32:24.607Z,-4060.56
2022-09-27T10:33:37.256Z,-479.72
2022-09-27T10:34:42.435Z,-2103.22
2022-09-27T10:35:47.013Z,-6649.34
2022-09-27T10:37:05.402Z,-9579.28
2022-09-27T10:38:23.499Z,-6984.28
2022-09-27T10:39:28.820Z,-4706.47
2022-09-27T10:40:33.854Z,-4708.59
2022-09-27T10:41:41.569Z,-3409.00
2022-09-27T10:42:53.281Z,-2757.81
2022-09-27T10:44:29.571Z,-3734.25
2022-09-27T10:46:17.075Z,-5036.00
2022-09-27T10:47:26.318Z,-3736.16
2022-09-27T10:48:35.210Z,170.84
2022-09-27T10:49:40.761Z,-1133.28
2022-09-27T10:51:31.322Z,3754.84
2022-09-27T10:52:34.412Z,3427.91
2022-09-27T10:53:36.863Z,1798.44
2022-09-27T10:55:08.118Z,-1786.06
2022-09-27T10:56:22.850Z,820.41
2022-09-27T10:57:28.602Z,3428.59
2022-09-27T10:58:35.324Z,3102.50
2022-09-27T10:59:41.887Z,4081.84
2022-09-27T11:00:44.560Z,8650.19
2022-09-27T11:01:50.134Z,8321.28
2022-09-27T11:03:16.440Z,7671.47
2022-09-27T11:04:34.942Z,7670.53
2022-09-27T11:05:39.719Z,6034.47
2022-09-27T11:06:42.390Z,4405.63
2022-09-27T11:07:52.853Z,3102.09
2022-09-27T11:09:09.978Z,6363.09
2022-09-27T11:10:27.959Z,7993.88
2022-09-27T11:11:30.873Z,7009.94
2022-09-27T11:12:35.630Z,2775.53
2022-09-27T11:13:39.404Z,2449.84
2022-09-27T11:15:01.788Z,-1780.84
2022-09-27T11:16:13.249Z,-2761.03
2022-09-27T11:17:26.594Z,821.00
2022-09-27T11:18:36.936Z,4404.19
2022-09-27T11:20:04.317Z,495.13
2022-09-27T11:21:34.999Z,4408.16
2022-09-27T11:22:55.359Z,7671.81
2022-09-27T11:24:04.149Z,9303.84
2022-09-27T11:25:31.892Z,11591.50
2022-09-27T11:26:45.303Z,12890.38
2022-09-27T11:28:02.138Z,10938.69
2022-09-27T11:29:26.560Z,15517.69
2022-09-27T11:31:46.239Z,15520.50
2022-09-27T11:33:09.482Z,14537.22
2022-09-27T11:34:48.734Z,19130.53
2022-09-27T11:36:13.813Z,28978.81
2022-09-27T11:38:07.260Z,31279.88
2022-09-27T11:39:22.990Z,26010.22
2022-09-27T11:40:45.175Z,23722.22
2022-09-27T11:42:06.287Z,21425.03
2022-09-27T11:43:16.145Z,27336.03
2022-09-27T11:44:37.753Z,35850.81
2022-09-27T11:46:20.816Z,22416.78
2022-09-27T11:47:51.427Z,37556.09
2022-09-27T11:49:30.521Z,48762.06
2022-09-27T11:50:44.816Z,43144.63
2022-09-27T11:52:02.771Z,48460.06
2022-09-27T11:53:21.554Z,65698.16
2022-09-27T11:55:05.789Z,73040.53
2022-09-27T11:56:23.042Z,94374.28
2022-09-27T11:57:47.083Z,122984.03
2022-09-27T11:59:20.194Z,118589.06
2022-09-27T12:00:35.507Z,127360.13
2022-09-27T12:01:54.660Z,123617.19
2022-09-27T12:03:02.867Z,116845.53
2022-09-27T12:04:26.975Z,99383.03
2022-09-27T12:05:29.286Z,106684.00
2022-09-27T12:06:45.764Z,98647.50
2022-09-27T12:08:26.910Z,99750.78
2022-09-27T12:09:45.389Z,109452.47
2022-09-27T12:10:51.583Z,116157.91
2022-09-27T12:11:59.881Z,106676.25
2022-09-27T12:13:04.274Z,93289.28
2022-09-27T12:14:25.862Z,88621.41
2022-09-27T12:15:34.524Z,79238.16
2022-09-27T12:16:41.863Z,84252.44
2022-09-27T12:17:48.392Z,99937.03
2022-09-27T12:18:53.079Z,92239.63
2022-09-27T12:20:26.021Z,80509.66
2022-09-27T12:21:31.965Z,65591.03
2022-09-27T12:22:57.949Z,70553.81
2022-09-27T12:24:19.750Z,69579.94
2022-09-27T12:25:37.580Z,72551.81
2022-09-27T12:26:52.893Z,66916.75
2022-09-27T12:28:05.453Z,57974.63
2022-09-27T12:29:36.319Z,59642.53
2022-09-27T12:30:44.805Z,60266.22
2022-09-27T12:32:05.678Z,49707.09
2022-09-27T12:33:19.355Z,48357.59
2022-09-27T12:34:53.166Z,44078.19
2022-09-27T12:36:00.070Z,46389.91
2022-09-27T12:37:25.272Z,40773.56
2022-09-27T12:38:44.343Z,40448.81
2022-09-27T12:40:00.625Z,39462.31
2022-09-27T12:41:13.951Z,41080.47
2022-09-27T12:42:58.407Z,33527.69
2022-09-27T12:44:12.380Z,31839.00
2022-09-27T12:45:31.931Z,23664.59
2022-09-27T12:47:03.315Z,20073.41
2022-09-27T12:48:48.838Z,24338.19
2022-09-27T12:50:06.041Z,26300.78
2022-09-27T12:51:10.047Z,27603.00
2022-09-27T12:52:23.135Z,24661.97
2022-09-27T12:54:01.970Z,27619.19
2022-09-27T12:55:34.160Z,21382.34
2022-09-27T12:57:01.530Z,25977.94
2022-09-27T12:58:34.871Z,27615.25
2022-09-27T12:59:46.969Z,29241.06
2022-09-27T13:01:03.928Z,30573.31
2022-09-27T13:02:39.131Z,36132.47
2022-09-27T13:03:53.498Z,34176.50
2022-09-27T13:05:13.932Z,36125.25
2022-09-27T13:06:32.145Z,37467.75
2022-09-27T13:08:05.351Z,44728.97
2022-09-27T13:09:16.402Z,48030.75
2022-09-27T13:10:57.702Z,47035.16
2022-09-27T13:12:07.075Z,48654.72
2022-09-27T13:13:13.067Z,46708.38
2022-09-27T13:14:23.497Z,48014.25
2022-09-27T13:15:26.839Z,56291.38
2022-09-27T13:16:29.956Z,60891.06
2022-09-27T13:17:37.539Z,56285.59
2022-09-27T13:18:49.966Z,53635.97
2022-09-27T13:19:52.516Z,52631.25
2022-09-27T13:20:55.851Z,58921.81
2022-09-27T13:22:27.681Z,61910.91
2022-09-27T13:23:51.563Z,64909.59
2022-09-27T13:24:55.386Z,63885.78
2022-09-27T13:26:24.293Z,61900.16
2022-09-27T13:27:34.627Z,52346.34
2022-09-27T13:28:47.671Z,62608.63
2022-09-27T13:30:13.076Z,56314.41
2022-09-27T13:31:53.826Z,56994.69
2022-09-27T13:33:13.946Z,80504.50
2022-09-27T13:34:53.735Z,63886.31
2022-09-27T13:36:16.400Z,72596.22
2022-09-27T13:37:44.454Z,72606.06
2022-09-27T13:39:14.017Z,76623.25
2022-09-27T13:40:36.875Z,101984.94
2022-09-27T13:42:07.220Z,114176.81
2022-09-27T13:43:13.281Z,149200.41
2022-09-27T13:44:48.010Z,149301.75
2022-09-27T13:45:57.007Z,149333.41
2022-09-27T13:47:33.218Z,149343.13
2022-09-27T13:49:07.899Z,149217.91
2022-09-27T13:50:45.191Z,149339.47
2022-09-27T13:51:51.478Z,149341.91
2022-09-27T13:53:06.887Z,149243.38
2022-09-27T13:54:33.943Z,149253.09
2022-09-27T13:55:43.316Z,149172.88
2022-09-27T13:57:25.678Z,149187.47
2022-09-27T13:58:51.569Z,149344.34
2022-09-27T14:00:24.674Z,149437.97
2022-09-27T14:01:39.590Z,149287.13
2022-09-27T14:03:10.886Z,149335.84
2022-09-27T14:04:20.713Z,149386.88
2022-09-27T14:05:31.055Z,149414.88